Time;durP1;ratioP1;P1;durP2;ratioP2;P2;SDS_P1;SDS_P2;PMS_P1;PMS_P2;Temp;Humidity;BMP_temperature;BMP_pressure;BME280_temperature;BME280_humidity;BME280_pressure;Samples;Min_cycle;Max_cycle;Signal;HPM_P1;HPM_P2
2023/04/20 00:00:44;;;;;;;3.78;0.70;;;7.10;61.90;;;;;;4986952;28;20033;-70
2023/04/20 00:03:11;;;;;;;3.00;0.80;;;7.10;62.20;;;;;;4994049;28;20029;-71
2023/04/20 00:05:37;;;;;;;2.85;0.80;;;7.10;62.40;;;;;;4986485;28;20068;-71
2023/04/20 00:08:04;;;;;;;2.73;0.53;;;7.10;62.60;;;;;;4985221;28;20025;-70
2023/04/20 00:10:30;;;;;;;1.73;0.50;;;7.10;62.70;;;;;;4980943;28;20033;-70
2023/04/20 00:12:56;;;;;;;2.30;0.55;;;7.00;62.80;;;;;;4969535;28;20048;-70
2023/04/20 00:15:22;;;;;;;2.92;0.65;;;7.00;62.70;;;;;;4970595;28;20053;-70
2023/04/20 00:17:49;;;;;;;1.42;0.70;;;7.00;62.80;;;;;;4992955;28;20033;-70
2023/04/20 00:20:15;;;;;;;2.85;0.82;;;7.00;62.90;;;;;;4991303;28;20428;-70
2023/04/20 00:22:42;;;;;;;3.08;0.63;;;7.00;62.90;;;;;;4993290;28;20029;-71
2023/04/20 00:25:08;;;;;;;2.20;0.60;;;7.00;63.10;;;;;;4973120;28;20044;-70
2023/04/20 00:27:35;;;;;;;4.97;0.60;;;7.00;63.10;;;;;;4988294;28;20041;-70
2023/04/20 00:30:01;;;;;;;3.93;0.70;;;7.00;63.20;;;;;;4980268;28;20935;-70
2023/04/20 00:32:29;;;;;;;2.03;0.60;;;6.90;63.40;;;;;;4971178;28;20037;-71
2023/04/20 00:34:55;;;;;;;1.97;0.60;;;6.90;64.10;;;;;;4971594;28;20052;-70
2023/04/20 00:37:24;;;;;;;5.20;0.80;;;6.90;63.60;;;;;;4974869;28;20037;-70
2023/04/20 00:39:54;;;;;;;1.88;0.70;;;6.80;63.80;;;;;;4974683;28;21141;-70
2023/04/20 00:42:20;;;;;;;4.60;0.70;;;6.80;63.90;;;;;;4994680;28;20034;-70
2023/04/20 00:44:47;;;;;;;2.05;0.60;;;6.80;64.00;;;;;;4987256;28;20047;-71
2023/04/20 00:47:15;;;;;;;3.25;0.82;;;6.80;64.10;;;;;;4985270;28;20029;-70
2023/04/20 00:49:41;;;;;;;4.53;1.07;;;6.80;64.50;;;;;;4982803;28;20606;-70
2023/04/20 00:52:08;;;;;;;3.00;0.80;;;6.80;64.50;;;;;;4965863;28;20042;-71
2023/04/20 00:54:35;;;;;;;4.45;0.80;;;6.80;64.80;;;;;;5001936;28;20443;-70
2023/04/20 00:57:03;;;;;;;1.98;0.90;;;6.80;65.10;;;;;;4990772;28;20040;-71
2023/04/20 00:59:29;;;;;;;4.80;0.90;;;6.80;65.10;;;;;;4977003;28;20507;-70
2023/04/20 01:01:57;;;;;;;4.72;0.88;;;6.80;65.20;;;;;;4989757;28;20042;-70
2023/04/20 01:04:23;;;;;;;3.90;0.85;;;6.80;65.50;;;;;;4972001;28;22871;-70
2023/04/20 01:06:50;;;;;;;6.63;0.90;;;6.80;66.00;;;;;;4986279;28;20533;-70
2023/04/20 01:09:16;;;;;;;2.67;1.07;;;6.80;66.20;;;;;;4986143;28;20033;-70
2023/04/20 01:11:44;;;;;;;5.73;0.90;;;6.80;66.90;;;;;;4983710;28;20408;-71
2023/04/20 01:14:10;;;;;;;7.75;0.82;;;6.80;66.90;;;;;;4985097;28;20496;-70
2023/04/20 01:16:36;;;;;;;4.47;1.05;;;6.80;67.10;;;;;;4987260;28;20026;-70
2023/04/20 01:19:04;;;;;;;3.90;1.40;;;6.90;67.50;;;;;;4979407;28;20037;-71
2023/04/20 01:21:32;;;;;;;4.35;1.10;;;7.00;68.60;;;;;;4986079;28;20504;-70
2023/04/20 01:23:59;;;;;;;4.30;1.17;;;7.10;68.20;;;;;;4991976;28;20029;-71
2023/04/20 01:26:26;;;;;;;2.97;0.90;;;7.20;68.20;;;;;;4986799;28;20374;-70
2023/04/20 01:28:52;;;;;;;2.00;0.82;;;7.30;68.20;;;;;;4985901;28;21017;-70
2023/04/20 01:31:18;;;;;;;2.60;1.00;;;7.40;69.00;;;;;;4978278;28;20033;-71
2023/04/20 01:33:45;;;;;;;3.00;1.02;;;7.50;68.90;;;;;;4990059;28;20033;-70
2023/04/20 01:36:12;;;;;;;3.25;1.52;;;7.60;69.50;;;;;;4988873;28;21032;-70
2023/04/20 01:38:38;;;;;;;1.77;1.00;;;7.70;70.00;;;;;;4976267;28;20037;-70
2023/04/20 01:41:07;;;;;;;4.95;0.80;;;7.70;71.00;;;;;;4990183;28;20863;-70
2023/04/20 01:43:34;;;;;;;3.08;1.10;;;7.70;70.20;;;;;;4992787;28;20319;-71
2023/04/20 01:46:01;;;;;;;4.15;1.35;;;7.70;71.00;;;;;;5016873;28;20621;-70
2023/04/20 01:48:27;;;;;;;3.67;1.20;;;7.60;71.50;;;;;;4969049;28;20041;-70
2023/04/20 01:50:54;;;;;;;3.40;1.10;;;7.50;71.50;;;;;;4963372;28;20162;-70
2023/04/20 01:53:20;;;;;;;3.42;1.45;;;7.50;72.20;;;;;;4985407;28;20052;-70
2023/04/20 01:55:48;;;;;;;2.63;0.95;;;7.40;72.70;;;;;;4953528;28;20766;-70
2023/04/20 01:58:14;;;;;;;1.97;0.80;;;7.40;72.80;;;;;;4991431;28;20041;-71
2023/04/20 02:00:40;;;;;;;3.43;1.10;;;7.30;72.70;;;;;;4987782;28;20026;-70
2023/04/20 02:03:07;;;;;;;3.88;0.70;;;7.20;73.20;;;;;;4993002;28;20668;-70
2023/04/20 02:05:33;;;;;;;3.00;1.00;;;7.20;73.70;;;;;;4986063;28;20033;-70
2023/04/20 02:08:00;;;;;;;3.67;1.60;;;7.20;74.10;;;;;;4984170;28;20044;-70
2023/04/20 02:10:26;;;;;;;1.97;1.30;;;7.10;74.60;;;;;;4962220;28;20447;-70
2023/04/20 02:12:53;;;;;;;2.75;1.17;;;7.10;75.10;;;;;;4986562;28;20448;-70
2023/04/20 02:15:19;;;;;;;5.65;1.40;;;7.10;75.50;;;;;;5001086;28;20639;-70
2023/04/20 02:17:46;;;;;;;2.22;1.05;;;7.10;75.80;;;;;;4990177;28;20925;-70
2023/04/20 02:20:12;;;;;;;3.20;1.13;;;7.10;76.10;;;;;;4972004;28;20041;-71
2023/04/20 02:22:38;;;;;;;5.70;1.63;;;7.10;76.00;;;;;;4993447;28;20528;-71
2023/04/20 02:25:06;;;;;;;3.95;1.27;;;7.00;76.50;;;;;;4988515;28;20037;-71
2023/04/20 02:27:33;;;;;;;4.05;0.95;;;7.00;76.60;;;;;;4987924;28;20037;-70
2023/04/20 02:29:59;;;;;;;3.30;1.20;;;7.10;76.80;;;;;;4978959;28;20037;-70
2023/04/20 02:32:26;;;;;;;3.20;1.20;;;7.10;76.80;;;;;;4988389;28;20033;-70
2023/04/20 02:34:52;;;;;;;5.60;1.45;;;7.20;76.90;;;;;;4991581;28;20029;-70
2023/04/20 02:37:19;;;;;;;2.97;1.33;;;7.30;77.20;;;;;;4990809;28;20045;-70
2023/04/20 02:39:45;;;;;;;6.57;1.50;;;7.40;77.20;;;;;;4973074;28;20045;-70
2023/04/20 02:42:11;;;;;;;6.22;1.48;;;7.40;77.70;;;;;;4993313;28;21095;-70
2023/04/20 02:44:38;;;;;;;2.58;1.35;;;7.50;77.80;;;;;;4968474;28;20033;-70
2023/04/20 02:47:05;;;;;;;2.88;1.17;;;7.50;77.70;;;;;;4999797;28;20731;-71
2023/04/20 02:49:31;;;;;;;4.13;1.17;;;7.60;78.00;;;;;;4982965;28;21215;-70
2023/04/20 02:51:57;;;;;;;2.75;1.05;;;7.60;78.20;;;;;;4983248;28;20025;-70
2023/04/20 02:54:24;;;;;;;5.43;1.58;;;7.60;78.20;;;;;;4984786;28;20030;-71
2023/04/20 02:56:50;;;;;;;6.83;2.00;;;7.70;78.90;;;;;;4986787;28;20034;-70
2023/04/20 02:59:17;;;;;;;2.70;1.40;;;7.70;79.00;;;;;;4991805;28;20038;-70
2023/04/20 03:01:56;;;;;;;5.65;0.98;;;7.70;79.00;;;;;;4991126;28;20041;-71
2023/04/20 03:04:26;;;;;;;4.78;1.17;;;7.80;79.10;;;;;;4972258;28;20025;-70
2023/04/20 03:07:25;;;;;;;2.67;1.38;;;7.80;79.20;;;;;;4989147;28;20038;-70
2023/04/20 03:09:52;;;;;;;3.60;1.60;;;7.90;79.60;;;;;;4966866;28;21340;-70
2023/04/20 03:12:33;;;;;;;3.83;1.42;;;7.90;79.90;;;;;;4989925;28;21180;-70
2023/04/20 03:15:20;;;;;;;7.77;1.23;;;7.90;79.80;;;;;;4989603;28;20038;-71
2023/04/20 03:18:14;;;;;;;3.88;1.45;;;7.90;80.10;;;;;;4965521;28;20750;-70
2023/04/20 03:20:41;;;;;;;6.10;1.45;;;7.90;80.20;;;;;;4991221;28;20033;-71
2023/04/20 03:23:07;;;;;;;5.70;1.48;;;7.90;80.40;;;;;;4979744;28;20829;-71
2023/04/20 03:25:35;;;;;;;4.78;1.10;;;7.90;80.60;;;;;;4972941;28;20048;-71
2023/04/20 03:28:07;;;;;;;3.95;1.73;;;7.90;80.80;;;;;;5005416;28;21255;-70
2023/04/20 03:30:34;;;;;;;6.57;1.40;;;7.90;81.10;;;;;;4969305;28;20040;-70
2023/04/20 03:33:09;;;;;;;4.65;1.63;;;7.90;81.30;;;;;;5019791;28;20393;-69
2023/04/20 03:35:38;;;;;;;3.70;0.98;;;7.90;81.60;;;;;;4989594;28;20404;-71
2023/04/20 03:38:05;;;;;;;3.35;1.75;;;7.90;81.70;;;;;;4976523;28;20084;-70
2023/04/20 03:40:31;;;;;;;2.75;1.15;;;7.90;82.20;;;;;;4973753;28;20305;-70
2023/04/20 03:42:57;;;;;;;3.88;1.73;;;7.90;82.20;;;;;;4998077;28;20037;-70
2023/04/20 03:45:24;;;;;;;2.45;1.30;;;7.90;82.40;;;;;;4989662;28;20052;-71
2023/04/20 03:47:51;;;;;;;2.80;1.67;;;7.90;82.50;;;;;;4987361;28;20598;-70
2023/04/20 03:50:17;;;;;;;4.32;1.50;;;7.90;82.80;;;;;;4981469;28;20050;-70
2023/04/20 03:52:43;;;;;;;4.10;1.40;;;7.90;83.00;;;;;;4988836;28;20040;-70
2023/04/20 03:55:10;;;;;;;2.97;1.13;;;7.90;83.40;;;;;;4987933;28;20068;-70
2023/04/20 03:57:42;;;;;;;4.63;1.80;;;7.90;83.60;;;;;;4986856;28;20030;-70
2023/04/20 04:00:11;;;;;;;3.15;1.58;;;8.00;84.10;;;;;;4988343;28;20038;-70
2023/04/20 04:02:46;;;;;;;5.85;1.60;;;7.90;84.20;;;;;;4997369;28;20041;-70
2023/04/20 04:05:15;;;;;;;4.32;1.65;;;7.90;84.50;;;;;;4989312;28;20489;-70
2023/04/20 04:07:42;;;;;;;5.55;1.77;;;7.90;84.80;;;;;;4972403;28;20503;-70
2023/04/20 04:10:09;;;;;;;4.20;1.50;;;7.90;85.00;;;;;;4964469;28;20041;-70
2023/04/20 04:12:36;;;;;;;3.80;1.58;;;7.90;85.30;;;;;;4987305;28;20629;-70
2023/04/20 04:15:03;;;;;;;2.38;0.90;;;7.90;85.30;;;;;;4971981;28;20033;-70
2023/04/20 04:17:33;;;;;;;3.53;0.85;;;7.90;85.30;;;;;;4958979;28;20036;-70
2023/04/20 04:20:00;;;;;;;4.53;1.58;;;8.00;85.60;;;;;;4972359;28;20500;-69
2023/04/20 04:22:26;;;;;;;4.45;1.42;;;7.90;85.80;;;;;;4997097;28;20037;-70
2023/04/20 04:25:11;;;;;;;7.88;1.95;;;8.00;86.10;;;;;;4986890;28;20041;-71
2023/04/20 04:27:39;;;;;;;4.05;1.58;;;8.00;86.40;;;;;;5002055;28;20040;-70
2023/04/20 04:30:06;;;;;;;4.28;1.98;;;8.00;86.60;;;;;;5010063;28;20045;-71
2023/04/20 04:32:34;;;;;;;13.65;6.88;;;8.00;86.90;;;;;;4986745;28;20033;-72
2023/04/20 04:35:02;;;;;;;8.45;5.22;;;8.00;87.00;;;;;;4987328;28;20033;-72
2023/04/20 04:37:29;;;;;;;4.57;1.85;;;8.00;87.00;;;;;;5003184;28;20029;-71
2023/04/20 04:39:57;;;;;;;3.08;1.42;;;8.00;87.20;;;;;;4989651;28;20053;-69
2023/04/20 04:42:30;;;;;;;3.87;1.40;;;8.00;87.10;;;;;;4992898;28;20046;-70
2023/04/20 04:45:03;;;;;;;7.72;2.17;;;8.00;87.30;;;;;;4986921;28;20045;-70
2023/04/20 04:47:33;;;;;;;;;;;8.00;87.50;;;;;;4987480;28;20029;-70
2023/04/20 04:50:02;;;;;;;3.28;1.23;;;8.10;87.90;;;;;;4962500;28;19925;-70
2023/04/20 04:52:28;;;;;;;5.00;1.60;;;8.10;88.10;;;;;;4987623;28;20037;-70
2023/04/20 04:54:54;;;;;;;5.20;1.63;;;8.10;88.20;;;;;;4988413;28;20155;-70
2023/04/20 04:57:21;;;;;;;5.38;1.45;;;8.10;88.40;;;;;;4986873;28;20033;-71
2023/04/20 04:59:47;;;;;;;2.85;1.45;;;8.10;88.60;;;;;;4973689;28;21091;-69
2023/04/20 05:02:13;;;;;;;2.58;1.10;;;8.10;88.60;;;;;;4993968;28;20033;-69
2023/04/20 05:04:40;;;;;;;1.92;0.82;;;8.10;88.60;;;;;;5003231;28;20986;-70
2023/04/20 05:07:06;;;;;;;3.70;1.40;;;8.10;88.80;;;;;;4986158;28;20037;-72
2023/04/20 05:09:33;;;;;;;5.60;1.88;;;8.10;89.10;;;;;;4982690;28;20041;-72
2023/04/20 05:11:59;;;;;;;3.60;2.47;;;8.20;89.50;;;;;;4984298;28;20407;-72
2023/04/20 05:14:26;;;;;;;3.60;2.03;;;8.20;89.70;;;;;;4984141;28;20064;-73
2023/04/20 05:16:52;;;;;;;5.20;1.40;;;8.20;89.70;;;;;;4988015;28;20049;-72
2023/04/20 05:19:18;;;;;;;5.25;1.92;;;8.30;89.80;;;;;;4992052;28;20037;-70
2023/04/20 05:21:45;;;;;;;4.53;1.45;;;8.30;90.00;;;;;;4990108;28;20447;-70
2023/04/20 05:24:11;;;;;;;6.38;2.17;;;8.30;90.00;;;;;;4975289;28;20056;-71
2023/04/20 05:26:37;;;;;;;4.38;1.60;;;8.30;90.10;;;;;;4986015;28;20033;-72
2023/04/20 05:29:03;;;;;;;2.88;1.58;;;8.40;90.20;;;;;;4985692;28;20746;-71
2023/04/20 05:31:32;;;;;;;2.40;1.20;;;8.40;90.50;;;;;;4981933;28;20594;-71
2023/04/20 05:33:58;;;;;;;4.65;1.48;;;8.50;90.30;;;;;;4988417;28;20036;-70
2023/04/20 05:36:25;;;;;;;2.90;1.23;;;8.50;90.40;;;;;;4986448;28;20060;-72
2023/04/20 05:38:51;;;;;;;3.22;1.30;;;8.50;90.40;;;;;;4990104;28;20033;-71
2023/04/20 05:41:17;;;;;;;3.15;1.55;;;8.50;90.50;;;;;;4986189;28;20037;-71
2023/04/20 05:43:44;;;;;;;3.85;1.38;;;8.50;90.60;;;;;;4991699;28;20104;-71
2023/04/20 05:46:10;;;;;;;4.40;1.50;;;8.60;90.70;;;;;;4988171;28;20499;-72
2023/04/20 05:48:36;;;;;;;3.38;2.03;;;8.60;90.80;;;;;;4999893;28;20077;-73
2023/04/20 05:51:03;;;;;;;3.60;2.42;;;8.60;90.90;;;;;;4994498;28;20042;-73
2023/04/20 05:53:29;;;;;;;6.88;2.78;;;8.60;90.90;;;;;;4980137;28;20037;-72
2023/04/20 05:55:55;;;;;;;5.57;3.47;;;8.70;91.00;;;;;;4988481;28;20468;-71
2023/04/20 05:58:22;;;;;;;6.85;2.25;;;8.80;91.30;;;;;;4971048;28;20045;-71
2023/04/20 06:00:48;;;;;;;5.43;1.88;;;8.80;91.10;;;;;;4988204;28;20532;-70
2023/04/20 06:03:15;;;;;;;4.00;1.73;;;8.90;91.10;;;;;;4992076;28;20795;-71
2023/04/20 06:05:41;;;;;;;7.28;2.67;;;8.90;91.20;;;;;;4983336;28;20044;-71
2023/04/20 06:08:08;;;;;;;5.78;2.08;;;8.90;91.20;;;;;;4982261;28;20041;-71
2023/04/20 06:10:34;;;;;;;10.35;2.70;;;8.90;91.20;;;;;;4989848;28;20033;-70
2023/04/20 06:13:00;;;;;;;5.88;2.67;;;8.90;91.20;;;;;;4983817;28;20033;-72
2023/04/20 06:15:27;;;;;;;6.80;2.13;;;9.00;91.20;;;;;;4984503;28;20025;-70
2023/04/20 06:17:53;;;;;;;6.80;2.38;;;9.00;91.10;;;;;;4988172;28;20056;-71
2023/04/20 06:20:19;;;;;;;4.82;1.70;;;9.10;91.10;;;;;;4986760;28;20698;-71
2023/04/20 06:22:46;;;;;;;5.18;1.48;;;9.00;90.80;;;;;;5006324;28;20717;-70
2023/04/20 06:25:14;;;;;;;3.17;1.77;;;9.00;91.00;;;;;;4986038;28;20049;-71
2023/04/20 06:27:40;;;;;;;4.93;2.30;;;9.00;91.10;;;;;;4985025;28;20033;-71
2023/04/20 06:30:08;;;;;;;2.95;1.67;;;9.00;91.10;;;;;;4977120;28;20045;-71
2023/04/20 06:32:35;;;;;;;3.38;1.50;;;9.00;91.30;;;;;;4986143;28;20037;-71
2023/04/20 06:35:03;;;;;;;2.78;1.77;;;9.10;91.20;;;;;;5016292;28;20038;-72
2023/04/20 06:37:29;;;;;;;4.05;2.30;;;9.30;91.10;;;;;;5005010;28;20029;-70
2023/04/20 06:39:55;;;;;;;4.88;2.22;;;9.30;90.90;;;;;;4988576;28;20059;-71
2023/04/20 06:42:21;;;;;;;9.40;2.65;;;9.40;90.90;;;;;;4997588;28;20041;-72
2023/04/20 06:44:49;;;;;;;4.88;2.40;;;9.40;90.80;;;;;;4988205;28;20049;-71
2023/04/20 06:47:15;;;;;;;6.95;2.85;;;9.40;90.70;;;;;;4989324;28;20053;-71
2023/04/20 06:49:42;;;;;;;6.47;2.47;;;9.40;90.80;;;;;;4985906;28;20053;-71
2023/04/20 06:52:08;;;;;;;5.85;2.30;;;9.40;90.80;;;;;;4988203;28;20404;-73
2023/04/20 06:54:34;;;;;;;5.97;2.63;;;9.40;90.80;;;;;;4988782;28;20059;-71
2023/04/20 06:57:01;;;;;;;7.25;2.85;;;9.40;90.90;;;;;;4980368;28;20029;-71
2023/04/20 06:59:27;;;;;;;5.85;2.40;;;9.40;91.20;;;;;;4983815;28;20037;-71
2023/04/20 07:01:53;;;;;;;4.65;2.63;;;9.30;91.00;;;;;;4973771;28;23383;-71
2023/04/20 07:04:19;;;;;;;4.72;2.08;;;9.20;91.20;;;;;;4994057;28;20096;-71
2023/04/20 07:06:48;;;;;;;4.85;2.25;;;9.20;91.40;;;;;;4985219;28;20038;-71
2023/04/20 07:09:14;;;;;;;9.75;2.55;;;9.20;91.50;;;;;;4988817;28;20033;-71
2023/04/20 07:11:40;;;;;;;5.60;3.00;;;9.40;91.70;;;;;;4983418;28;20037;-71
2023/04/20 07:14:06;;;;;;;5.03;2.60;;;9.40;91.60;;;;;;4989209;28;20029;-72
2023/04/20 07:16:33;;;;;;;5.38;2.60;;;9.40;91.80;;;;;;4988238;28;20042;-71
2023/04/20 07:18:59;;;;;;;4.97;2.45;;;9.60;91.80;;;;;;4962649;28;20701;-70
2023/04/20 07:21:26;;;;;;;5.03;2.78;;;9.70;91.70;;;;;;4986146;28;20033;-70
2023/04/20 07:23:52;;;;;;;7.38;3.03;;;9.80;91.80;;;;;;4975921;28;20049;-71
2023/04/20 07:26:18;;;;;;;5.47;3.17;;;9.80;91.60;;;;;;5018493;28;20064;-71
2023/04/20 07:28:44;;;;;;;3.78;2.20;;;9.80;91.70;;;;;;4985640;28;20060;-72
2023/04/20 07:31:11;;;;;;;12.05;3.10;;;9.70;91.60;;;;;;4981278;28;20033;-71
2023/04/20 07:33:37;;;;;;;5.00;2.80;;;9.70;91.80;;;;;;4988065;28;20041;-70
2023/04/20 07:36:05;;;;;;;5.10;2.90;;;9.60;92.00;;;;;;4988248;28;20042;-72
2023/04/20 07:38:31;;;;;;;6.38;3.15;;;9.60;92.10;;;;;;4991898;28;20505;-71
2023/04/20 07:40:57;;;;;;;5.82;2.67;;;9.60;92.20;;;;;;4970873;28;20084;-71
2023/04/20 07:43:24;;;;;;;4.07;2.40;;;9.70;92.30;;;;;;4978877;28;20057;-71
2023/04/20 07:45:50;;;;;;;6.47;2.40;;;9.80;92.20;;;;;;4987387;28;20045;-71
2023/04/20 07:48:16;;;;;;;6.25;3.72;;;9.90;92.30;;;;;;4987515;28;20040;-70
2023/04/20 07:50:43;;;;;;;4.13;2.22;;;10.00;92.10;;;;;;4979667;28;20064;-71
2023/04/20 07:53:09;;;;;;;4.82;2.58;;;9.90;92.00;;;;;;4982585;28;20655;-71
2023/04/20 07:55:35;;;;;;;10.40;3.45;;;10.00;92.30;;;;;;4988540;28;20038;-71
2023/04/20 07:58:02;;;;;;;4.63;3.53;;;10.00;92.10;;;;;;4990710;28;20372;-71
2023/04/20 08:00:28;;;;;;;6.30;2.92;;;10.00;92.10;;;;;;4989058;28;20356;-71
2023/04/20 08:02:55;;;;;;;5.85;3.00;;;10.00;92.20;;;;;;4994808;28;20033;-72
2023/04/20 08:05:23;;;;;;;6.07;2.58;;;10.10;92.30;;;;;;4991947;28;20033;-71
2023/04/20 08:07:49;;;;;;;7.75;3.90;;;10.10;92.10;;;;;;4985648;28;20037;-71
2023/04/20 08:10:16;;;;;;;7.65;3.40;;;10.20;92.20;;;;;;4980443;28;20033;-72
2023/04/20 08:12:42;;;;;;;8.30;3.83;;;10.20;92.10;;;;;;4972082;28;21342;-71
2023/04/20 08:15:09;;;;;;;9.32;3.85;;;10.20;92.00;;;;;;4987369;28;20037;-72
2023/04/20 08:17:35;;;;;;;7.00;2.75;;;10.10;92.20;;;;;;5018148;28;20478;-71
2023/04/20 08:20:03;;;;;;;5.90;3.55;;;10.10;92.50;;;;;;4989752;28;20063;-71
2023/04/20 08:22:31;;;;;;;6.78;3.42;;;10.20;92.30;;;;;;4980626;28;20039;-71
2023/04/20 08:24:57;;;;;;;7.22;3.80;;;10.30;92.20;;;;;;4989122;28;20408;-72
2023/04/20 08:27:24;;;;;;;8.02;4.47;;;10.40;92.30;;;;;;4987070;28;20041;-72
2023/04/20 08:29:51;;;;;;;6.18;2.92;;;10.50;92.30;;;;;;4984436;28;20438;-72
2023/04/20 08:32:21;;;;;;;5.47;3.63;;;10.60;92.20;;;;;;4985320;28;20040;-72
2023/04/20 08:34:48;;;;;;;6.30;3.50;;;10.80;92.30;;;;;;4969871;28;20493;-72
2023/04/20 08:37:15;;;;;;;7.07;3.80;;;10.80;91.90;;;;;;4986963;28;20033;-72
2023/04/20 08:39:41;;;;;;;6.18;3.15;;;10.80;91.80;;;;;;4989001;28;20033;-71
2023/04/20 08:42:07;;;;;;;5.88;3.45;;;10.70;91.80;;;;;;4977766;28;20057;-72
2023/04/20 08:44:34;;;;;;;6.00;2.42;;;10.60;92.00;;;;;;4989749;28;20536;-71
2023/04/20 08:47:02;;;;;;;5.05;2.80;;;10.60;92.20;;;;;;4985987;28;20052;-72
2023/04/20 08:49:29;;;;;;;4.65;2.97;;;10.70;92.30;;;;;;4983891;28;20049;-72
2023/04/20 08:51:56;;;;;;;7.90;3.65;;;10.70;92.40;;;;;;4981312;28;20052;-72
2023/04/20 08:54:22;;;;;;;7.68;3.47;;;10.80;92.30;;;;;;4985381;28;20675;-72
2023/04/20 08:56:48;;;;;;;4.80;2.90;;;10.70;92.30;;;;;;4986162;28;20033;-72
2023/04/20 08:59:15;;;;;;;6.00;3.08;;;10.70;92.30;;;;;;4991988;28;20527;-72
2023/04/20 09:01:43;;;;;;;5.47;2.58;;;10.70;92.40;;;;;;4991485;28;20029;-72
2023/04/20 09:04:16;;;;;;;4.95;3.00;;;10.80;92.50;;;;;;4992169;28;21132;-72
2023/04/20 09:06:49;;;;;;;6.47;2.88;;;10.80;92.30;;;;;;4987160;28;20057;-72
2023/04/20 09:09:16;;;;;;;4.88;2.55;;;10.80;92.20;;;;;;4986136;28;20052;-72
2023/04/20 09:11:43;;;;;;;6.82;3.78;;;10.70;92.30;;;;;;4978761;28;20037;-72
2023/04/20 09:14:15;;;;;;;7.32;3.97;;;10.60;92.50;;;;;;4987768;28;20037;-72
2023/04/20 09:16:52;;;;;;;6.30;3.40;;;10.60;92.80;;;;;;4987660;28;20404;-72
2023/04/20 09:19:25;;;;;;;7.07;3.20;;;10.50;93.00;;;;;;4994084;28;20315;-72
2023/04/20 09:21:54;;;;;;;6.50;3.78;;;10.60;93.00;;;;;;4991134;28;20025;-72
2023/04/20 09:24:22;;;;;;;4.45;3.30;;;10.70;92.90;;;;;;5016225;28;20033;-73
2023/04/20 09:26:48;;;;;;;4.97;2.80;;;10.70;93.00;;;;;;4985351;28;20368;-71
2023/04/20 09:29:20;;;;;;;9.15;3.50;;;10.70;93.00;;;;;;4967411;28;20295;-72
2023/04/20 09:31:47;;;;;;;5.70;3.03;;;10.60;92.80;;;;;;4981162;28;20030;-72
2023/04/20 09:34:14;;;;;;;5.65;3.40;;;10.50;93.00;;;;;;4987526;28;20041;-71
2023/04/20 09:36:45;;;;;;;6.05;2.72;;;10.50;92.80;;;;;;5018681;28;20512;-71
2023/04/20 09:39:21;;;;;;;5.55;3.28;;;10.30;93.00;;;;;;4993660;28;20033;-72
2023/04/20 09:41:49;;;;;;;8.02;3.78;;;10.20;93.30;;;;;;4989031;28;20267;-73
2023/04/20 09:44:16;;;;;;;5.32;2.80;;;10.10;93.40;;;;;;4985597;28;20324;-71
2023/04/20 09:46:44;;;;;;;5.15;3.08;;;10.00;93.60;;;;;;4966227;28;20042;-71
2023/04/20 09:49:12;;;;;;;7.40;3.88;;;10.00;93.70;;;;;;4983992;28;20030;-71
2023/04/20 09:51:43;;;;;;;5.75;2.85;;;10.00;93.90;;;;;;5009701;28;20121;-71
2023/04/20 09:54:11;;;;;;;4.80;2.55;;;9.90;93.90;;;;;;5017592;28;20040;-72
2023/04/20 09:56:38;;;;;;;7.03;3.33;;;10.00;94.10;;;;;;4986622;28;20036;-71
2023/04/20 09:59:04;;;;;;;6.13;3.45;;;10.30;94.00;;;;;;4993218;28;20037;-71
2023/04/20 10:01:33;;;;;;;5.03;3.00;;;10.60;93.70;;;;;;4954363;28;20037;-71
2023/04/20 10:04:02;;;;;;;3.78;2.40;;;10.90;93.20;;;;;;4988366;28;20491;-71
2023/04/20 10:06:31;;;;;;;5.68;3.22;;;11.00;92.80;;;;;;4983211;28;20044;-71
2023/04/20 10:09:00;;;;;;;4.22;2.20;;;11.10;92.30;;;;;;4968038;28;20060;-71
2023/04/20 10:11:46;;;;;;;4.47;2.20;;;11.20;92.40;;;;;;4978117;28;20045;-71
2023/04/20 10:14:17;;;;;;;4.68;2.45;;;11.40;92.00;;;;;;4985965;28;20399;-71
2023/04/20 10:16:45;;;;;;;7.80;2.97;;;11.50;91.90;;;;;;4984419;28;20048;-71
2023/04/20 10:19:12;;;;;;;4.18;2.30;;;11.50;91.40;;;;;;4975245;28;20037;-71
2023/04/20 10:21:51;;;;;;;4.18;1.95;;;11.50;91.20;;;;;;4986430;28;20057;-70
2023/04/20 10:24:30;;;;;;;3.42;2.42;;;11.60;91.10;;;;;;4987725;28;20033;-71
2023/04/20 10:26:57;;;;;;;4.05;2.70;;;11.60;90.70;;;;;;4981312;28;20034;-70
2023/04/20 10:29:25;;;;;;;3.13;1.92;;;11.80;90.50;;;;;;4963940;28;20476;-71
2023/04/20 10:31:52;;;;;;;4.40;2.10;;;12.10;90.70;;;;;;4979502;28;20041;-71
2023/04/20 10:34:58;;;;;;;3.53;1.85;;;12.70;90.30;;;;;;4982497;28;20056;-71
2023/04/20 10:37:25;;;;;;;5.35;2.38;;;13.00;89.40;;;;;;4976655;28;21062;-71
2023/04/20 10:39:51;;;;;;;2.83;1.75;;;13.20;87.60;;;;;;4985490;28;20049;-71
2023/04/20 10:42:17;;;;;;;3.65;2.63;;;13.20;86.70;;;;;;4991628;28;20044;-70
2023/04/20 10:44:51;;;;;;;7.25;2.35;;;13.30;87.10;;;;;;4987064;28;20040;-71
2023/04/20 10:47:30;;;;;;;4.60;2.47;;;13.50;86.50;;;;;;4981008;28;20037;-71
2023/04/20 10:50:17;;;;;;;4.43;2.03;;;13.60;85.50;;;;;;4991769;28;20045;-71
2023/04/20 10:52:44;;;;;;;3.20;2.30;;;13.50;85.20;;;;;;4983395;28;20681;-71
2023/04/20 10:55:22;;;;;;;5.88;3.00;;;13.40;85.10;;;;;;4984804;28;20463;-70
2023/04/20 10:57:49;;;;;;;3.78;2.55;;;13.70;85.20;;;;;;4983517;28;20092;-71
2023/04/20 11:00:16;;;;;;;5.07;2.00;;;13.80;84.40;;;;;;4984741;28;20551;-71
2023/04/20 11:02:50;;;;;;;2.47;1.65;;;13.60;83.70;;;;;;4992870;28;20041;-72
2023/04/20 11:05:17;;;;;;;3.65;1.80;;;13.40;83.20;;;;;;4988296;28;20025;-72
2023/04/20 11:07:54;;;;;;;4.43;1.60;;;13.20;83.50;;;;;;4964850;28;20442;-72
2023/04/20 11:10:42;;;;;;;2.88;1.92;;;13.10;84.00;;;;;;4980242;28;20048;-71
2023/04/20 11:13:22;;;;;;;3.80;1.73;;;12.90;84.10;;;;;;4981619;28;20030;-72
2023/04/20 11:15:48;;;;;;;4.70;2.65;;;12.60;84.90;;;;;;4979949;28;20040;-72
2023/04/20 11:18:14;;;;;;;4.63;2.85;;;12.40;84.90;;;;;;4986270;28;20382;-71
2023/04/20 11:21:01;;;;;;;2.92;2.10;;;12.30;85.60;;;;;;4967439;28;20579;-72
2023/04/20 11:23:37;;;;;;;4.18;1.95;;;12.20;85.80;;;;;;4991098;28;20543;-71
2023/04/20 11:26:03;;;;;;;4.15;2.45;;;12.20;86.20;;;;;;4987656;28;20917;-71
2023/04/20 11:28:33;;;;;;;4.32;2.40;;;12.30;86.10;;;;;;4984796;28;20166;-72
2023/04/20 11:31:00;;;;;;;4.80;3.10;;;12.20;85.10;;;;;;4981315;28;20037;-72
2023/04/20 11:33:28;;;;;;;4.13;3.03;;;12.00;85.70;;;;;;4971408;28;20029;-72
2023/04/20 11:35:58;;;;;;;5.45;3.10;;;12.00;86.50;;;;;;4989293;28;20328;-72
2023/04/20 11:38:32;;;;;;;3.28;2.00;;;12.20;86.20;;;;;;4987070;28;20341;-71
2023/04/20 11:41:03;;;;;;;3.90;2.50;;;12.10;86.50;;;;;;5019253;28;20464;-72
2023/04/20 11:43:30;;;;;;;4.95;2.03;;;12.10;86.50;;;;;;5011728;28;21481;-72
2023/04/20 11:45:57;;;;;;;4.05;2.20;;;12.00;86.40;;;;;;4993390;28;20033;-72
2023/04/20 11:48:24;;;;;;;4.15;3.35;;;11.90;86.70;;;;;;4985068;28;20026;-72
2023/04/20 11:50:50;;;;;;;4.68;3.58;;;11.90;87.40;;;;;;4995393;28;20069;-71
2023/04/20 11:53:17;;;;;;;3.85;2.65;;;11.80;87.90;;;;;;4986491;28;20233;-71
2023/04/20 11:55:43;;;;;;;5.43;3.05;;;11.80;88.00;;;;;;4983219;28;20033;-71
2023/04/20 11:58:10;;;;;;;3.30;2.58;;;11.80;87.80;;;;;;4985826;28;20037;-71
2023/04/20 12:00:36;;;;;;;4.78;3.63;;;11.80;88.10;;;;;;4984599;28;20954;-70
2023/04/20 12:03:02;;;;;;;6.47;3.05;;;11.90;87.90;;;;;;4994291;28;20030;-71
2023/04/20 12:05:29;;;;;;;4.38;3.42;;;11.80;87.80;;;;;;4994104;28;20048;-72
2023/04/20 12:07:55;;;;;;;5.70;2.65;;;11.60;88.20;;;;;;4972017;28;20046;-72
2023/04/20 12:10:21;;;;;;;3.22;2.63;;;11.50;88.60;;;;;;4977122;28;20938;-72
2023/04/20 12:12:48;;;;;;;5.85;3.35;;;11.50;89.20;;;;;;5015194;28;20463;-71
2023/04/20 12:15:14;;;;;;;4.78;3.17;;;11.60;89.50;;;;;;4985573;28;20044;-71
2023/04/20 12:17:40;;;;;;;6.15;3.53;;;11.70;88.80;;;;;;4985752;28;20061;-72
2023/04/20 12:20:10;;;;;;;4.78;3.78;;;11.70;88.80;;;;;;4976305;28;20036;-71
2023/04/20 12:22:37;;;;;;;6.95;4.22;;;11.90;88.70;;;;;;4994405;28;20040;-72
2023/04/20 12:25:04;;;;;;;6.30;4.30;;;11.80;87.40;;;;;;4993660;28;20492;-71
2023/04/20 12:27:33;;;;;;;4.90;4.03;;;11.60;87.50;;;;;;4991654;28;20033;-71
2023/04/20 12:30:00;;;;;;;4.78;3.05;;;11.50;88.20;;;;;;4979484;28;20117;-71
2023/04/20 12:32:26;;;;;;;5.60;4.43;;;11.30;88.90;;;;;;4965564;28;20040;-71
2023/04/20 12:34:52;;;;;;;8.15;4.55;;;11.40;89.40;;;;;;4982101;28;20045;-71
2023/04/20 12:37:19;;;;;;;5.50;3.60;;;11.40;89.70;;;;;;4969178;28;20037;-71
2023/04/20 12:39:45;;;;;;;4.15;3.75;;;11.40;90.00;;;;;;4964323;28;20041;-71
2023/04/20 12:42:12;;;;;;;5.63;3.33;;;11.40;90.10;;;;;;4990785;28;20029;-71
2023/04/20 12:44:38;;;;;;;6.50;3.30;;;11.50;90.10;;;;;;4993883;28;20343;-71
2023/04/20 12:47:05;;;;;;;5.75;3.90;;;11.60;89.60;;;;;;4995929;28;20044;-71
2023/04/20 12:49:31;;;;;;;5.28;3.45;;;11.70;89.20;;;;;;4986838;28;20538;-71
2023/04/20 12:51:57;;;;;;;5.78;3.78;;;11.90;89.40;;;;;;4965965;28;20068;-71
2023/04/20 12:54:23;;;;;;;8.60;4.15;;;12.20;88.10;;;;;;4985972;28;22674;-71
2023/04/20 12:56:50;;;;;;;6.72;3.58;;;12.30;87.70;;;;;;4984711;28;20037;-72